createdAt,value
2023-04-23T00:02:13.499Z,2.77
2023-04-23T00:04:50.680Z,3.00
2023-04-23T00:07:20.769Z,2.73
2023-04-23T00:09:49.971Z,2.70
2023-04-23T00:12:17.362Z,2.33
2023-04-23T00:14:44.383Z,2.23
2023-04-23T00:17:11.257Z,1.53
2023-04-23T00:19:38.110Z,2.60
2023-04-23T00:22:05.083Z,2.10
2023-04-23T00:24:34.117Z,1.97
2023-04-23T00:27:01.181Z,2.70
2023-04-23T00:29:28.210Z,3.13
2023-04-23T00:31:55.427Z,2.70
2023-04-23T00:34:22.359Z,2.27
2023-04-23T00:36:49.230Z,1.47
2023-04-23T00:39:16.474Z,2.67
2023-04-23T00:41:44.390Z,2.33
2023-04-23T00:44:12.068Z,2.30
2023-04-23T00:46:39.517Z,2.03
2023-04-23T00:49:06.604Z,2.77
2023-04-23T00:51:33.433Z,4.00
2023-04-23T00:54:00.365Z,1.43
2023-04-23T00:56:28.056Z,2.67
2023-04-23T00:58:55.436Z,1.90
2023-04-23T01:01:22.640Z,3.17
2023-04-23T01:03:51.533Z,3.20
2023-04-23T01:06:19.342Z,1.90
2023-04-23T01:08:47.709Z,2.20
2023-04-23T01:11:15.816Z,2.03
2023-04-23T01:13:43.561Z,2.70
2023-04-23T01:16:11.540Z,1.87
2023-04-23T01:18:41.113Z,2.80
2023-04-23T01:21:11.766Z,1.80
2023-04-23T01:23:39.731Z,2.43
2023-04-23T01:26:07.297Z,2.40
2023-04-23T01:28:34.706Z,2.53
2023-04-23T01:31:02.653Z,1.70
2023-04-23T01:33:30.634Z,2.73
2023-04-23T01:35:58.099Z,2.57
2023-04-23T01:38:28.604Z,2.47
2023-04-23T01:40:55.630Z,2.47
2023-04-23T01:43:23.487Z,2.43
2023-04-23T01:45:50.374Z,2.20
2023-04-23T01:48:17.592Z,2.83
2023-04-23T01:50:44.525Z,2.90
2023-04-23T01:53:11.585Z,2.43
2023-04-23T01:55:39.453Z,2.50
2023-04-23T01:58:06.825Z,2.67
2023-04-23T02:00:33.853Z,2.93
2023-04-23T02:03:00.715Z,1.40
2023-04-23T02:05:29.706Z,2.13
2023-04-23T02:07:57.364Z,2.10
2023-04-23T02:10:25.337Z,1.80
2023-04-23T02:12:52.090Z,2.10
2023-04-23T02:15:20.122Z,3.67
2023-04-23T02:17:47.053Z,1.83
2023-04-23T02:20:13.944Z,2.33
2023-04-23T02:22:42.587Z,2.87
2023-04-23T02:25:10.637Z,1.80
2023-04-23T02:27:37.625Z,2.23
2023-04-23T02:30:05.274Z,1.83
2023-04-23T02:32:32.179Z,2.10
2023-04-23T02:34:59.754Z,2.17
2023-04-23T02:37:27.176Z,1.77
2023-04-23T02:39:54.447Z,1.97
2023-04-23T02:42:21.357Z,3.23
2023-04-23T02:44:48.174Z,2.27
2023-04-23T02:47:14.955Z,2.87
2023-04-23T02:49:41.994Z,2.37
2023-04-23T02:52:09.033Z,1.73
2023-04-23T02:54:37.264Z,1.87
2023-04-23T02:57:05.176Z,2.37
2023-04-23T02:59:32.228Z,2.63
2023-04-23T03:01:59.196Z,2.00
2023-04-23T03:04:26.379Z,2.13
2023-04-23T03:06:53.276Z,1.87
2023-04-23T03:09:20.293Z,2.27
2023-04-23T03:11:48.391Z,3.87
2023-04-23T03:14:15.348Z,2.80
2023-04-23T03:16:42.173Z,2.10
2023-04-23T03:19:09.012Z,1.67
2023-04-23T03:21:35.885Z,1.67
2023-04-23T03:24:02.756Z,2.23
2023-04-23T03:26:29.671Z,1.93
2023-04-23T03:28:56.534Z,1.63
2023-04-23T03:31:23.435Z,2.17
2023-04-23T03:33:50.296Z,2.43
2023-04-23T03:36:17.196Z,3.07
2023-04-23T03:38:44.070Z,2.57
2023-04-23T03:41:11.448Z,2.67
2023-04-23T03:43:38.333Z,2.27
2023-04-23T03:46:05.242Z,1.87
2023-04-23T03:48:32.246Z,3.53
2023-04-23T03:50:59.114Z,2.83
2023-04-23T03:53:26.031Z,1.80
2023-04-23T03:55:52.905Z,1.97
2023-04-23T03:58:19.737Z,2.73
2023-04-23T04:00:47.266Z,1.57
2023-04-23T04:03:14.324Z,1.77
2023-04-23T04:05:41.411Z,2.73
2023-04-23T04:08:08.665Z,1.63
2023-04-23T04:10:35.461Z,1.80
2023-04-23T04:13:02.342Z,1.43
2023-04-23T04:15:29.242Z,2.23
2023-04-23T04:17:56.190Z,1.97
2023-04-23T04:20:23.119Z,2.33
2023-04-23T04:22:50.028Z,1.93
2023-04-23T04:25:16.880Z,2.43
2023-04-23T04:27:44.457Z,2.13
2023-04-23T04:30:11.710Z,1.80
2023-04-23T04:32:40.598Z,3.23
2023-04-23T04:35:09.151Z,2.37
2023-04-23T04:37:36.376Z,2.17
2023-04-23T04:40:03.842Z,2.07
2023-04-23T04:42:31.072Z,4.00
2023-04-23T04:44:59.634Z,2.70
2023-04-23T04:47:26.723Z,3.20
2023-04-23T04:49:57.169Z,2.00
2023-04-23T04:52:24.925Z,2.90
2023-04-23T04:54:51.972Z,1.37
2023-04-23T04:57:20.387Z,2.20
2023-04-23T04:59:47.391Z,1.97
2023-04-23T05:02:14.371Z,2.87
2023-04-23T05:04:41.669Z,1.83
2023-04-23T05:07:08.820Z,2.47
2023-04-23T05:09:35.775Z,3.53
2023-04-23T05:12:02.681Z,1.70
2023-04-23T05:14:29.976Z,2.30
2023-04-23T05:16:56.982Z,1.67
2023-04-23T05:19:24.009Z,2.93
2023-04-23T05:21:50.968Z,2.00
2023-04-23T05:24:17.807Z,1.43
2023-04-23T05:26:44.713Z,1.37
2023-04-23T05:29:14.251Z,1.90
2023-04-23T05:31:41.141Z,2.30
2023-04-23T05:34:11.104Z,1.57
2023-04-23T05:36:37.995Z,1.93
2023-04-23T05:39:04.882Z,1.83
2023-04-23T05:41:31.934Z,2.17
2023-04-23T05:43:58.792Z,2.03
2023-04-23T05:46:25.729Z,2.90
2023-04-23T05:48:53.641Z,2.13
2023-04-23T05:51:20.802Z,2.17
2023-04-23T05:53:47.684Z,2.33
2023-04-23T05:56:14.597Z,2.43
2023-04-23T05:58:41.510Z,2.27
2023-04-23T06:01:08.683Z,2.63
2023-04-23T06:03:37.267Z,1.87
2023-04-23T06:06:04.371Z,3.10
2023-04-23T06:08:31.193Z,2.67
2023-04-23T06:10:58.525Z,3.47
2023-04-23T06:13:25.767Z,2.33
2023-04-23T06:15:52.734Z,1.97
2023-04-23T06:18:19.610Z,2.27
2023-04-23T06:20:47.403Z,1.57
2023-04-23T06:23:14.582Z,1.77
2023-04-23T06:25:41.427Z,2.20
2023-04-23T06:28:08.263Z,2.03
2023-04-23T06:30:35.243Z,2.30
2023-04-23T06:33:02.444Z,2.63
2023-04-23T06:35:31.238Z,2.40
2023-04-23T06:37:58.067Z,1.33
2023-04-23T06:40:27.117Z,2.33
2023-04-23T06:42:54.103Z,1.70
2023-04-23T06:45:21.173Z,2.53
2023-04-23T06:47:49.879Z,1.27
2023-04-23T06:50:16.990Z,2.60
2023-04-23T06:52:43.861Z,2.13
2023-04-23T06:55:10.964Z,2.03
2023-04-23T06:57:37.863Z,2.90
2023-04-23T07:00:09.109Z,1.27
2023-04-23T07:02:36.469Z,2.07
2023-04-23T07:05:03.680Z,2.90
2023-04-23T07:07:31.202Z,1.43
2023-04-23T07:09:58.102Z,1.43
2023-04-23T07:12:24.929Z,1.67
2023-04-23T07:14:53.608Z,2.10
2023-04-23T07:17:20.817Z,1.67
2023-04-23T07:19:48.111Z,1.77
2023-04-23T07:22:15.119Z,1.43
2023-04-23T07:24:42.115Z,2.47
2023-04-23T07:27:09.228Z,2.33
2023-04-23T07:29:36.189Z,1.93
2023-04-23T07:32:03.457Z,1.47
2023-04-23T07:34:30.679Z,1.67
2023-04-23T07:36:58.030Z,1.67
2023-04-23T07:39:24.925Z,2.27
2023-04-23T07:41:51.910Z,1.90
2023-04-23T07:44:18.794Z,1.07
2023-04-23T07:46:45.674Z,1.20
2023-04-23T07:49:12.573Z,2.17
2023-04-23T07:51:39.416Z,1.43
2023-04-23T07:54:06.385Z,1.73
2023-04-23T07:56:33.219Z,1.07
2023-04-23T07:59:00.592Z,1.10
2023-04-23T08:01:27.654Z,0.50
2023-04-23T08:03:59.125Z,1.20
2023-04-23T08:06:27.910Z,1.67
2023-04-23T08:08:56.128Z,1.43
2023-04-23T08:11:23.733Z,1.50
2023-04-23T08:13:50.632Z,2.10
2023-04-23T08:16:17.628Z,1.10
2023-04-23T08:18:57.900Z,1.30
2023-04-23T08:21:32.790Z,0.83
2023-04-23T08:23:59.645Z,1.20
2023-04-23T08:26:26.579Z,0.77
2023-04-23T08:28:53.478Z,0.70
2023-04-23T08:31:26.434Z,0.83
2023-04-23T08:33:54.626Z,1.03
2023-04-23T08:36:21.526Z,0.93
2023-04-23T08:38:48.392Z,1.47
2023-04-23T08:41:18.054Z,0.93
2023-04-23T08:43:51.719Z,1.17
2023-04-23T08:46:19.488Z,1.60
2023-04-23T08:48:47.571Z,0.70
2023-04-23T08:51:19.056Z,1.10
2023-04-23T08:53:50.584Z,1.10
2023-04-23T08:56:17.448Z,1.07
2023-04-23T08:58:45.628Z,1.07
2023-04-23T09:01:12.801Z,0.97
2023-04-23T09:03:40.532Z,0.70
2023-04-23T09:06:07.992Z,1.17
2023-04-23T09:08:35.581Z,0.80
2023-04-23T09:11:02.510Z,0.80
2023-04-23T09:13:32.041Z,1.33
2023-04-23T09:15:59.104Z,1.30
2023-04-23T09:18:25.964Z,2.40
2023-04-23T09:20:54.094Z,1.57
2023-04-23T09:23:22.622Z,1.50
2023-04-23T09:25:49.481Z,1.20
2023-04-23T09:28:16.276Z,1.43
2023-04-23T09:30:46.503Z,0.77
2023-04-23T09:33:13.818Z,1.17
2023-04-23T09:35:43.265Z,0.77
2023-04-23T09:38:10.821Z,1.00
2023-04-23T09:40:38.852Z,1.17
2023-04-23T09:43:07.395Z,1.10
2023-04-23T09:45:35.437Z,1.87
2023-04-23T09:48:02.730Z,1.37
2023-04-23T09:50:39.110Z,0.87
2023-04-23T09:53:07.668Z,1.20
2023-04-23T09:55:40.783Z,1.50
2023-04-23T09:58:16.732Z,0.87
2023-04-23T10:00:43.695Z,1.03
2023-04-23T10:03:12.096Z,0.90
2023-04-23T10:08:13.969Z,1.23
2023-04-23T10:10:55.029Z,1.17
2023-04-23T10:13:28.052Z,1.23
2023-04-23T10:15:59.091Z,0.83
2023-04-23T10:18:33.648Z,0.50
2023-04-23T10:21:02.723Z,0.90
2023-04-23T10:23:30.988Z,1.07
2023-04-23T10:26:01.231Z,1.20
2023-04-23T10:28:32.118Z,1.13
2023-04-23T10:31:01.090Z,1.13
2023-04-23T10:33:37.457Z,1.57
2023-04-23T10:36:09.827Z,0.60
2023-04-23T10:38:42.937Z,0.97
2023-04-23T10:41:23.860Z,1.37
2023-04-23T10:43:52.857Z,1.13
2023-04-23T10:46:33.262Z,1.23
2023-04-23T10:49:16.943Z,1.20
2023-04-23T10:54:20.035Z,1.10
2023-04-23T10:56:57.733Z,1.13
2023-04-23T10:59:25.084Z,0.67
2023-04-23T11:01:52.599Z,1.13
2023-04-23T11:04:30.148Z,1.07
2023-04-23T11:07:05.316Z,1.17
2023-04-23T11:09:38.008Z,0.70
2023-04-23T11:12:11.202Z,1.10
2023-04-23T11:14:45.592Z,0.77
2023-04-23T11:17:13.844Z,1.00
2023-04-23T11:19:42.329Z,0.90
2023-04-23T11:22:20.682Z,0.53
2023-04-23T11:24:50.266Z,1.13
2023-04-23T11:27:19.212Z,0.70
2023-04-23T11:29:47.958Z,0.67
2023-04-23T11:32:17.140Z,0.80
2023-04-23T11:34:46.458Z,0.70
2023-04-23T11:37:17.775Z,0.80
2023-04-23T11:39:47.568Z,0.97
2023-04-23T11:42:15.839Z,1.10
2023-04-23T11:44:44.146Z,1.05
2023-04-23T11:47:13.265Z,0.80
2023-04-23T11:49:44.856Z,1.15
2023-04-23T11:52:12.989Z,1.40
2023-04-23T11:54:42.940Z,1.17
2023-04-23T11:57:10.502Z,0.70
2023-04-23T11:59:37.835Z,1.02
2023-04-23T12:02:04.864Z,0.68
2023-04-23T12:04:32.971Z,0.52
2023-04-23T12:07:00.333Z,0.90
2023-04-23T12:09:29.418Z,0.98
2023-04-23T12:11:58.502Z,0.75
2023-04-23T12:14:30.810Z,0.90
2023-04-23T12:17:08.357Z,1.25
2023-04-23T12:19:35.218Z,1.27
2023-04-23T12:22:03.759Z,0.50
2023-04-23T12:24:44.929Z,1.00
2023-04-23T12:27:20.477Z,1.10
2023-04-23T12:29:51.356Z,1.10
2023-04-23T12:32:19.366Z,0.53
2023-04-23T12:34:53.927Z,1.35
2023-04-23T12:37:29.396Z,0.98
2023-04-23T12:39:59.258Z,0.90
2023-04-23T12:42:26.473Z,0.75
2023-04-23T12:44:55.814Z,0.77
2023-04-23T12:47:22.754Z,0.77
2023-04-23T12:49:53.317Z,0.80
2023-04-23T12:52:20.866Z,0.73
2023-04-23T12:54:52.212Z,0.82
2023-04-23T12:57:23.294Z,0.90
2023-04-23T12:59:50.717Z,0.85
2023-04-23T13:02:17.702Z,1.05
2023-04-23T13:04:44.778Z,1.08
2023-04-23T13:07:11.626Z,1.02
2023-04-23T13:09:38.861Z,0.90
2023-04-23T13:12:05.810Z,0.88
2023-04-23T13:14:32.804Z,0.73
2023-04-23T13:16:59.694Z,1.17
2023-04-23T13:19:26.579Z,0.95
2023-04-23T13:21:53.869Z,0.43
2023-04-23T13:24:20.774Z,1.10
2023-04-23T13:26:47.595Z,1.02
2023-04-23T13:29:14.577Z,0.90
2023-04-23T13:31:41.634Z,1.08
2023-04-23T13:34:08.588Z,0.68
2023-04-23T13:36:35.578Z,1.05
2023-04-23T13:39:02.779Z,0.80
2023-04-23T13:41:29.587Z,0.65
2023-04-23T13:43:56.497Z,1.15
2023-04-23T13:46:23.454Z,1.38
2023-04-23T13:48:50.389Z,1.10
2023-04-23T13:51:27.139Z,0.95
2023-04-23T13:54:01.474Z,0.98
2023-04-23T13:56:30.289Z,1.10
2023-04-23T13:59:18.227Z,0.80
2023-04-23T14:01:49.707Z,1.45
2023-04-23T14:04:17.649Z,1.00
2023-04-23T14:06:44.864Z,1.27
2023-04-23T14:09:12.172Z,0.68
2023-04-23T14:11:40.536Z,1.08
2023-04-23T14:14:07.972Z,0.93
2023-04-23T14:16:35.555Z,1.02
2023-04-23T14:19:02.586Z,1.58
2023-04-23T14:21:29.572Z,0.98
2023-04-23T14:24:09.985Z,0.80
2023-04-23T14:29:33.602Z,0.73
2023-04-23T14:32:00.764Z,1.45
2023-04-23T14:34:27.983Z,0.90
2023-04-23T14:36:54.868Z,0.70
2023-04-23T14:39:23.464Z,0.73
2023-04-23T14:41:50.538Z,0.85
2023-04-23T14:44:17.418Z,0.70
2023-04-23T14:46:44.451Z,0.90
2023-04-23T14:49:11.337Z,0.98
2023-04-23T14:51:38.378Z,0.75
2023-04-23T14:54:05.429Z,0.90
2023-04-23T14:56:32.273Z,0.95
2023-04-23T14:58:59.098Z,0.80
2023-04-23T15:01:26.009Z,0.57
2023-04-23T15:03:53.519Z,0.65
2023-04-23T15:06:20.490Z,1.40
2023-04-23T15:08:47.352Z,1.15
2023-04-23T15:11:14.538Z,1.38
2023-04-23T15:13:56.414Z,1.05
2023-04-23T15:19:06.281Z,1.10
2023-04-23T15:21:33.408Z,0.77
2023-04-23T15:24:00.285Z,1.15
2023-04-23T15:26:27.279Z,1.15
2023-04-23T15:28:54.163Z,1.00
2023-04-23T15:31:21.023Z,0.95
2023-04-23T15:33:48.169Z,0.98
2023-04-23T15:36:15.075Z,0.95
2023-04-23T15:38:42.119Z,0.70
2023-04-23T15:41:09.026Z,0.80
2023-04-23T15:43:35.831Z,0.80
2023-04-23T15:46:02.765Z,0.77
2023-04-23T15:48:29.749Z,0.80
2023-04-23T15:50:57.041Z,1.27
2023-04-23T15:53:23.999Z,1.38
2023-04-23T15:55:51.689Z,1.50
2023-04-23T15:58:19.685Z,1.15
2023-04-23T16:00:46.883Z,0.65
2023-04-23T16:03:15.241Z,1.40
2023-04-23T16:05:42.721Z,1.10
2023-04-23T16:08:09.702Z,0.90
2023-04-23T16:10:38.517Z,1.10
2023-04-23T16:13:06.393Z,1.13
2023-04-23T16:15:33.464Z,0.88
2023-04-23T16:18:00.727Z,0.80
2023-04-23T16:20:28.479Z,1.15
2023-04-23T16:22:56.120Z,1.25
2023-04-23T16:25:23.588Z,1.42
2023-04-23T16:27:50.590Z,1.25
2023-04-23T16:30:17.487Z,1.05
2023-04-23T16:32:44.453Z,0.80
2023-04-23T16:35:11.428Z,1.00
2023-04-23T16:37:38.379Z,0.67
2023-04-23T16:40:06.061Z,0.90
2023-04-23T16:42:32.982Z,1.00
2023-04-23T16:44:59.816Z,0.77
2023-04-23T16:47:26.988Z,1.00
2023-04-23T16:49:53.937Z,1.23
2023-04-23T16:52:20.865Z,0.67
2023-04-23T16:54:49.541Z,1.37
2023-04-23T16:57:17.239Z,0.73
2023-04-23T16:59:44.506Z,0.70
2023-04-23T17:02:11.776Z,1.30
2023-04-23T17:04:39.082Z,0.80
2023-04-23T17:07:06.424Z,1.50
2023-04-23T17:09:33.276Z,1.03
2023-04-23T17:12:00.092Z,1.43
2023-04-23T17:14:27.234Z,0.67
2023-04-23T17:16:54.116Z,0.80
2023-04-23T17:19:21.022Z,0.87
2023-04-23T17:21:47.993Z,1.03
2023-04-23T17:24:14.903Z,0.87
2023-04-23T17:26:41.804Z,1.23
2023-04-23T17:29:08.675Z,1.53
2023-04-23T17:31:37.689Z,0.97
2023-04-23T17:34:05.442Z,0.87
2023-04-23T17:36:32.345Z,0.90
2023-04-23T17:38:59.190Z,1.03
2023-04-23T17:41:26.074Z,0.80
2023-04-23T17:43:53.312Z,0.83
2023-04-23T17:46:20.195Z,0.77
2023-04-23T17:48:48.280Z,0.80
2023-04-23T17:51:15.304Z,0.87
2023-04-23T17:53:42.593Z,0.80
2023-04-23T17:56:10.253Z,0.73
2023-04-23T17:58:38.391Z,1.50
2023-04-23T18:01:07.197Z,1.20
2023-04-23T18:03:34.196Z,1.10
2023-04-23T18:06:01.480Z,0.80
2023-04-23T18:08:28.445Z,0.93
2023-04-23T18:10:55.523Z,1.80
2023-04-23T18:13:22.338Z,0.87
2023-04-23T18:15:50.130Z,1.00
2023-04-23T18:18:18.234Z,0.77
2023-04-23T18:20:46.294Z,1.10
2023-04-23T18:23:14.337Z,1.70
2023-04-23T18:25:42.134Z,1.20
2023-04-23T18:28:09.103Z,0.90
2023-04-23T18:30:38.094Z,0.90
2023-04-23T18:33:32.130Z,0.90
2023-04-23T18:36:04.575Z,0.80
2023-04-23T18:38:45.266Z,1.07
2023-04-23T18:41:12.130Z,0.93
2023-04-23T18:43:39.213Z,1.97
2023-04-23T18:46:06.165Z,0.60
2023-04-23T18:48:35.947Z,0.53
2023-04-23T18:51:25.517Z,1.30
2023-04-23T18:53:52.597Z,1.23
2023-04-23T18:56:19.507Z,1.30
2023-04-23T18:58:46.607Z,1.00
2023-04-23T19:01:13.912Z,1.20
2023-04-23T19:03:41.074Z,1.40
2023-04-23T19:06:08.338Z,1.23
2023-04-23T19:08:36.069Z,0.87
2023-04-23T19:11:03.486Z,1.00
2023-04-23T19:13:30.598Z,2.17
2023-04-23T19:15:57.606Z,1.30
2023-04-23T19:18:24.718Z,1.43
2023-04-23T19:20:52.809Z,1.63
2023-04-23T19:23:20.410Z,1.57
2023-04-23T19:25:48.157Z,0.80
2023-04-23T19:28:15.178Z,0.90
2023-04-23T19:30:42.172Z,1.23
2023-04-23T19:33:09.091Z,0.97
2023-04-23T19:35:39.363Z,1.70
2023-04-23T19:38:07.078Z,0.70
2023-04-23T19:40:34.001Z,1.00
2023-04-23T19:43:00.966Z,1.10
2023-04-23T19:45:30.072Z,1.43
2023-04-23T19:47:57.547Z,1.67
2023-04-23T19:50:25.291Z,1.60
2023-04-23T19:52:52.905Z,1.17
2023-04-23T19:55:22.325Z,1.03
2023-04-23T19:57:49.214Z,1.10
2023-04-23T20:00:16.798Z,1.40
2023-04-23T20:02:43.899Z,0.80
2023-04-23T20:05:11.326Z,0.90
2023-04-23T20:07:39.113Z,1.07
2023-04-23T20:10:07.092Z,1.17
2023-04-23T20:12:34.866Z,1.33
2023-04-23T20:15:02.300Z,1.63
2023-04-23T20:17:30.247Z,1.00
2023-04-23T20:20:01.858Z,1.20
2023-04-23T20:22:29.872Z,2.00
2023-04-23T20:24:57.272Z,1.00
2023-04-23T20:27:24.246Z,0.80
2023-04-23T20:29:51.537Z,1.90
2023-04-23T20:32:18.506Z,0.80
2023-04-23T20:34:45.496Z,0.97
2023-04-23T20:37:12.700Z,1.67
2023-04-23T20:39:39.704Z,1.20
2023-04-23T20:42:07.156Z,0.90
2023-04-23T20:44:34.474Z,1.20
2023-04-23T20:47:04.923Z,1.10
2023-04-23T20:49:32.645Z,1.43
2023-04-23T20:51:59.935Z,1.83
2023-04-23T20:54:26.877Z,1.33
2023-04-23T20:56:54.289Z,1.13
2023-04-23T20:59:21.969Z,1.10
2023-04-23T21:01:49.983Z,1.27
2023-04-23T21:04:17.257Z,2.17
2023-04-23T21:06:44.255Z,1.53
2023-04-23T21:09:11.429Z,2.57
2023-04-23T21:11:38.320Z,1.90
2023-04-23T21:14:08.965Z,1.40
2023-04-23T21:16:36.869Z,1.20
2023-04-23T21:19:04.972Z,0.87
2023-04-23T21:21:32.621Z,1.20
2023-04-23T21:24:03.151Z,1.03
2023-04-23T21:26:30.875Z,1.10
2023-04-23T21:28:57.825Z,0.90
2023-04-23T21:31:39.343Z,1.57
2023-04-23T21:34:06.177Z,1.80
2023-04-23T21:36:33.029Z,1.00
2023-04-23T21:38:59.947Z,1.77
2023-04-23T21:41:26.804Z,0.80
2023-04-23T21:43:53.962Z,1.77
2023-04-23T21:46:23.005Z,1.27
2023-04-23T21:48:53.681Z,1.87
2023-04-23T21:51:25.113Z,0.63
2023-04-23T21:53:51.918Z,1.20
2023-04-23T21:56:18.818Z,1.10
2023-04-23T21:58:46.075Z,0.97
2023-04-23T22:01:12.981Z,2.30
2023-04-23T22:03:43.491Z,0.80
2023-04-23T22:06:10.755Z,1.10
2023-04-23T22:08:38.264Z,1.60
2023-04-23T22:11:07.279Z,1.73
2023-04-23T22:13:35.090Z,1.57
2023-04-23T22:16:04.977Z,1.40
2023-04-23T22:18:33.547Z,1.87
2023-04-23T22:21:00.445Z,0.97
2023-04-23T22:23:28.433Z,1.63
2023-04-23T22:25:55.338Z,1.03
2023-04-23T22:28:22.176Z,1.17
2023-04-23T22:30:49.203Z,1.47
2023-04-23T22:33:16.006Z,0.67
2023-04-23T22:35:42.854Z,1.90
2023-04-23T22:38:09.806Z,1.40
2023-04-23T22:40:36.750Z,1.37
2023-04-23T22:43:03.679Z,1.00
2023-04-23T22:45:30.619Z,1.10
2023-04-23T22:47:57.969Z,0.93
2023-04-23T22:50:24.928Z,1.23
2023-04-23T22:52:52.240Z,1.77
2023-04-23T22:55:19.022Z,0.87
2023-04-23T22:57:46.071Z,1.13
2023-04-23T23:00:13.652Z,1.17
2023-04-23T23:02:40.616Z,1.27
2023-04-23T23:05:07.963Z,1.07
2023-04-23T23:07:34.899Z,1.33
2023-04-23T23:10:03.634Z,1.27
2023-04-23T23:12:30.619Z,0.77
2023-04-23T23:14:57.454Z,1.20
2023-04-23T23:17:24.243Z,1.27
2023-04-23T23:19:51.106Z,1.57
2023-04-23T23:22:18.021Z,1.30
2023-04-23T23:24:45.109Z,1.00
2023-04-23T23:27:11.974Z,1.53
2023-04-23T23:29:38.856Z,1.40
2023-04-23T23:32:05.716Z,0.97
2023-04-23T23:34:32.718Z,0.60
2023-04-23T23:36:59.531Z,1.17
2023-04-23T23:39:27.425Z,1.00
2023-04-23T23:41:54.282Z,1.20
2023-04-23T23:44:21.116Z,1.03
2023-04-23T23:46:48.011Z,1.00
2023-04-23T23:49:14.956Z,0.93
2023-04-23T23:51:41.856Z,1.93
2023-04-23T23:54:08.668Z,0.57
2023-04-23T23:56:35.988Z,1.30
2023-04-23T23:59:02.891Z,0.93
